sensor_id;sensor_type;location;lat;lon;timestamp;P1;durP1;ratioP1;P2;durP2;ratioP2
33170;SDS011;19535;50.672;4.206;2023-02-15T00:02:01;31.65;;;29.02;;
33170;SDS011;19535;50.672;4.206;2023-02-15T00:04:28;30.15;;;27.65;;
33170;SDS011;19535;50.672;4.206;2023-02-15T00:07:16;30.17;;;27.63;;
33170;SDS011;19535;50.672;4.206;2023-02-15T00:09:47;29.00;;;26.60;;
33170;SDS011;19535;50.672;4.206;2023-02-15T00:12:15;30.02;;;27.40;;
33170;SDS011;19535;50.672;4.206;2023-02-15T00:14:42;29.00;;;26.58;;
33170;SDS011;19535;50.672;4.206;2023-02-15T00:17:09;29.65;;;27.02;;
33170;SDS011;19535;50.672;4.206;2023-02-15T00:19:36;29.40;;;27.00;;
33170;SDS011;19535;50.672;4.206;2023-02-15T00:22:03;28.75;;;26.25;;
33170;SDS011;19535;50.672;4.206;2023-02-15T00:24:30;27.90;;;25.50;;
33170;SDS011;19535;50.672;4.206;2023-02-15T00:26:57;27.95;;;25.67;;
33170;SDS011;19535;50.672;4.206;2023-02-15T00:29:27;28.10;;;25.60;;
33170;SDS011;19535;50.672;4.206;2023-02-15T00:34:22;25.40;;;23.35;;
33170;SDS011;19535;50.672;4.206;2023-02-15T00:39:18;27.63;;;25.40;;
33170;SDS011;19535;50.672;4.206;2023-02-15T00:41:45;27.77;;;25.38;;
33170;SDS011;19535;50.672;4.206;2023-02-15T00:44:13;26.08;;;23.88;;
33170;SDS011;19535;50.672;4.206;2023-02-15T00:46:40;26.63;;;24.40;;
33170;SDS011;19535;50.672;4.206;2023-02-15T00:49:07;26.17;;;24.05;;
33170;SDS011;19535;50.672;4.206;2023-02-15T00:51:35;25.15;;;23.15;;
33170;SDS011;19535;50.672;4.206;2023-02-15T00:54:01;25.95;;;23.85;;
33170;SDS011;19535;50.672;4.206;2023-02-15T00:56:28;25.08;;;22.98;;
33170;SDS011;19535;50.672;4.206;2023-02-15T00:58:55;24.90;;;22.90;;
33170;SDS011;19535;50.672;4.206;2023-02-15T01:01:22;24.73;;;22.63;;
33170;SDS011;19535;50.672;4.206;2023-02-15T01:03:49;25.20;;;23.05;;
33170;SDS011;19535;50.672;4.206;2023-02-15T01:06:16;25.17;;;23.00;;
33170;SDS011;19535;50.672;4.206;2023-02-15T01:08:44;24.73;;;22.73;;
33170;SDS011;19535;50.672;4.206;2023-02-15T01:11:12;23.98;;;21.90;;
33170;SDS011;19535;50.672;4.206;2023-02-15T01:13:41;22.75;;;20.85;;
33170;SDS011;19535;50.672;4.206;2023-02-15T01:16:08;23.73;;;21.67;;
33170;SDS011;19535;50.672;4.206;2023-02-15T01:18:35;23.48;;;21.58;;
33170;SDS011;19535;50.672;4.206;2023-02-15T01:21:09;23.50;;;21.60;;
33170;SDS011;19535;50.672;4.206;2023-02-15T01:23:40;24.73;;;22.63;;
33170;SDS011;19535;50.672;4.206;2023-02-15T01:26:08;24.65;;;22.55;;
33170;SDS011;19535;50.672;4.206;2023-02-15T01:28:36;22.63;;;20.73;;
33170;SDS011;19535;50.672;4.206;2023-02-15T01:31:10;23.65;;;21.75;;
33170;SDS011;19535;50.672;4.206;2023-02-15T01:33:38;22.90;;;20.90;;
33170;SDS011;19535;50.672;4.206;2023-02-15T01:36:05;21.20;;;19.35;;
33170;SDS011;19535;50.672;4.206;2023-02-15T01:38:34;23.30;;;21.30;;
33170;SDS011;19535;50.672;4.206;2023-02-15T01:41:01;21.98;;;20.17;;
33170;SDS011;19535;50.672;4.206;2023-02-15T01:43:55;22.10;;;20.20;;
33170;SDS011;19535;50.672;4.206;2023-02-15T01:46:25;22.88;;;20.90;;
33170;SDS011;19535;50.672;4.206;2023-02-15T01:49:00;22.67;;;20.67;;
33170;SDS011;19535;50.672;4.206;2023-02-15T01:51:30;22.38;;;20.38;;
33170;SDS011;19535;50.672;4.206;2023-02-15T01:54:05;22.35;;;20.45;;
33170;SDS011;19535;50.672;4.206;2023-02-15T01:56:38;21.52;;;19.63;;
33170;SDS011;19535;50.672;4.206;2023-02-15T01:59:08;21.83;;;19.95;;
33170;SDS011;19535;50.672;4.206;2023-02-15T02:01:38;21.10;;;19.40;;
33170;SDS011;19535;50.672;4.206;2023-02-15T02:06:42;20.83;;;19.00;;
33170;SDS011;19535;50.672;4.206;2023-02-15T02:09:12;21.02;;;19.33;;
33170;SDS011;19535;50.672;4.206;2023-02-15T02:11:39;20.58;;;18.80;;
33170;SDS011;19535;50.672;4.206;2023-02-15T02:14:07;20.63;;;18.83;;
33170;SDS011;19535;50.672;4.206;2023-02-15T02:33:11;19.83;;;18.17;;
33170;SDS011;19535;50.672;4.206;2023-02-15T02:42:09;19.50;;;17.80;;
33170;SDS011;19535;50.672;4.206;2023-02-15T02:44:48;19.90;;;18.08;;
33170;SDS011;19535;50.672;4.206;2023-02-15T02:49:59;18.95;;;17.10;;
33170;SDS011;19535;50.672;4.206;2023-02-15T02:55:03;17.75;;;16.15;;
33170;SDS011;19535;50.672;4.206;2023-02-15T02:57:37;17.67;;;16.17;;
33170;SDS011;19535;50.672;4.206;2023-02-15T03:00:06;18.42;;;16.83;;
33170;SDS011;19535;50.672;4.206;2023-02-15T03:02:36;18.30;;;16.65;;
33170;SDS011;19535;50.672;4.206;2023-02-15T03:05:07;17.67;;;16.17;;
33170;SDS011;19535;50.672;4.206;2023-02-15T03:07:37;19.00;;;17.30;;
33170;SDS011;19535;50.672;4.206;2023-02-15T03:10:06;18.52;;;16.83;;
33170;SDS011;19535;50.672;4.206;2023-02-15T03:12:34;17.85;;;16.25;;
33170;SDS011;19535;50.672;4.206;2023-02-15T03:15:08;16.08;;;14.73;;
33170;SDS011;19535;50.672;4.206;2023-02-15T03:17:45;18.00;;;16.38;;
33170;SDS011;19535;50.672;4.206;2023-02-15T03:20:24;17.42;;;15.82;;
33170;SDS011;19535;50.672;4.206;2023-02-15T03:22:55;17.65;;;15.95;;
33170;SDS011;19535;50.672;4.206;2023-02-15T03:25:26;17.48;;;15.88;;
33170;SDS011;19535;50.672;4.206;2023-02-15T03:27:59;17.25;;;15.68;;
33170;SDS011;19535;50.672;4.206;2023-02-15T03:30:29;17.50;;;15.90;;
33170;SDS011;19535;50.672;4.206;2023-02-15T03:32:58;16.80;;;15.20;;
33170;SDS011;19535;50.672;4.206;2023-02-15T03:35:26;16.90;;;15.40;;
33170;SDS011;19535;50.672;4.206;2023-02-15T03:38:03;17.70;;;16.02;;
33170;SDS011;19535;50.672;4.206;2023-02-15T03:40:43;17.52;;;15.93;;
33170;SDS011;19535;50.672;4.206;2023-02-15T03:49:09;17.20;;;15.60;;
33170;SDS011;19535;50.672;4.206;2023-02-15T03:51:43;16.90;;;15.30;;
33170;SDS011;19535;50.672;4.206;2023-02-15T03:54:13;16.77;;;15.27;;
33170;SDS011;19535;50.672;4.206;2023-02-15T03:57:03;16.23;;;14.82;;
33170;SDS011;19535;50.672;4.206;2023-02-15T03:59:49;16.33;;;14.80;;
33170;SDS011;19535;50.672;4.206;2023-02-15T04:02:37;16.40;;;14.93;;
33170;SDS011;19535;50.672;4.206;2023-02-15T04:05:06;16.25;;;14.73;;
33170;SDS011;19535;50.672;4.206;2023-02-15T04:07:33;15.45;;;14.15;;
33170;SDS011;19535;50.672;4.206;2023-02-15T04:10:00;15.27;;;13.98;;
33170;SDS011;19535;50.672;4.206;2023-02-15T04:12:46;16.05;;;14.57;;
33170;SDS011;19535;50.672;4.206;2023-02-15T04:15:13;16.92;;;15.48;;
33170;SDS011;19535;50.672;4.206;2023-02-15T04:17:58;15.77;;;14.30;;
33170;SDS011;19535;50.672;4.206;2023-02-15T04:20:25;16.42;;;14.93;;
33170;SDS011;19535;50.672;4.206;2023-02-15T04:23:11;16.45;;;14.95;;
33170;SDS011;19535;50.672;4.206;2023-02-15T04:25:56;16.08;;;14.57;;
33170;SDS011;19535;50.672;4.206;2023-02-15T04:28:23;15.65;;;14.35;;
33170;SDS011;19535;50.672;4.206;2023-02-15T04:30:50;15.82;;;14.43;;
33170;SDS011;19535;50.672;4.206;2023-02-15T04:33:17;15.38;;;13.88;;
33170;SDS011;19535;50.672;4.206;2023-02-15T04:35:44;15.48;;;14.05;;
33170;SDS011;19535;50.672;4.206;2023-02-15T04:38:11;15.30;;;13.90;;
33170;SDS011;19535;50.672;4.206;2023-02-15T04:40:38;15.65;;;14.25;;
33170;SDS011;19535;50.672;4.206;2023-02-15T04:43:05;15.80;;;14.40;;
33170;SDS011;19535;50.672;4.206;2023-02-15T04:45:31;15.40;;;13.98;;
33170;SDS011;19535;50.672;4.206;2023-02-15T04:47:58;14.70;;;13.32;;
33170;SDS011;19535;50.672;4.206;2023-02-15T04:50:25;15.70;;;14.20;;
33170;SDS011;19535;50.672;4.206;2023-02-15T04:52:52;15.13;;;13.75;;
33170;SDS011;19535;50.672;4.206;2023-02-15T04:55:19;14.70;;;13.40;;
33170;SDS011;19535;50.672;4.206;2023-02-15T04:57:46;14.80;;;13.50;;
33170;SDS011;19535;50.672;4.206;2023-02-15T05:00:13;14.52;;;13.20;;
33170;SDS011;19535;50.672;4.206;2023-02-15T05:02:40;14.60;;;13.20;;
33170;SDS011;19535;50.672;4.206;2023-02-15T05:05:07;14.73;;;13.32;;
33170;SDS011;19535;50.672;4.206;2023-02-15T05:07:35;14.52;;;13.27;;
33170;SDS011;19535;50.672;4.206;2023-02-15T05:10:02;15.75;;;14.35;;
33170;SDS011;19535;50.672;4.206;2023-02-15T05:12:29;14.60;;;13.30;;
33170;SDS011;19535;50.672;4.206;2023-02-15T05:14:56;14.63;;;13.32;;
33170;SDS011;19535;50.672;4.206;2023-02-15T05:17:23;14.70;;;13.30;;
33170;SDS011;19535;50.672;4.206;2023-02-15T05:19:50;14.88;;;13.45;;
33170;SDS011;19535;50.672;4.206;2023-02-15T05:22:17;14.80;;;13.38;;
33170;SDS011;19535;50.672;4.206;2023-02-15T05:24:44;14.05;;;12.75;;
33170;SDS011;19535;50.672;4.206;2023-02-15T05:27:29;13.82;;;12.43;;
33170;SDS011;19535;50.672;4.206;2023-02-15T05:30:15;13.77;;;12.57;;
33170;SDS011;19535;50.672;4.206;2023-02-15T05:32:42;13.50;;;12.20;;
33170;SDS011;19535;50.672;4.206;2023-02-15T05:35:11;13.27;;;11.95;;
33170;SDS011;19535;50.672;4.206;2023-02-15T05:37:39;13.70;;;12.30;;
33170;SDS011;19535;50.672;4.206;2023-02-15T05:40:07;13.10;;;11.80;;
33170;SDS011;19535;50.672;4.206;2023-02-15T05:42:34;12.93;;;11.73;;
33170;SDS011;19535;50.672;4.206;2023-02-15T05:45:01;12.75;;;11.52;;
33170;SDS011;19535;50.672;4.206;2023-02-15T05:47:29;12.55;;;11.40;;
33170;SDS011;19535;50.672;4.206;2023-02-15T05:49:56;12.13;;;11.05;;
33170;SDS011;19535;50.672;4.206;2023-02-15T05:52:23;13.05;;;11.85;;
33170;SDS011;19535;50.672;4.206;2023-02-15T05:54:50;12.82;;;11.63;;
33170;SDS011;19535;50.672;4.206;2023-02-15T05:57:17;13.25;;;11.95;;
33170;SDS011;19535;50.672;4.206;2023-02-15T05:59:44;11.90;;;10.68;;
33170;SDS011;19535;50.672;4.206;2023-02-15T06:02:11;12.13;;;10.98;;
33170;SDS011;19535;50.672;4.206;2023-02-15T06:04:39;11.90;;;10.88;;
33170;SDS011;19535;50.672;4.206;2023-02-15T06:07:06;11.45;;;10.43;;
33170;SDS011;19535;50.672;4.206;2023-02-15T06:09:32;11.65;;;10.55;;
33170;SDS011;19535;50.672;4.206;2023-02-15T06:11:59;12.55;;;11.25;;
33170;SDS011;19535;50.672;4.206;2023-02-15T06:14:26;12.27;;;11.15;;
33170;SDS011;19535;50.672;4.206;2023-02-15T06:16:53;11.85;;;10.65;;
33170;SDS011;19535;50.672;4.206;2023-02-15T06:19:20;11.82;;;10.65;;
33170;SDS011;19535;50.672;4.206;2023-02-15T06:21:49;12.82;;;11.50;;
33170;SDS011;19535;50.672;4.206;2023-02-15T06:24:16;12.00;;;10.77;;
33170;SDS011;19535;50.672;4.206;2023-02-15T06:26:42;12.15;;;10.98;;
33170;SDS011;19535;50.672;4.206;2023-02-15T06:29:09;12.57;;;11.38;;
33170;SDS011;19535;50.672;4.206;2023-02-15T06:31:36;13.07;;;11.77;;
33170;SDS011;19535;50.672;4.206;2023-02-15T06:34:03;52.10;;;45.05;;
33170;SDS011;19535;50.672;4.206;2023-02-15T06:36:30;57.63;;;51.22;;
33170;SDS011;19535;50.672;4.206;2023-02-15T06:38:57;48.50;;;42.05;;
33170;SDS011;19535;50.672;4.206;2023-02-15T06:41:24;38.20;;;34.15;;
33170;SDS011;19535;50.672;4.206;2023-02-15T06:43:51;40.08;;;33.15;;
33170;SDS011;19535;50.672;4.206;2023-02-15T06:46:18;36.35;;;32.42;;
33170;SDS011;19535;50.672;4.206;2023-02-15T06:48:45;32.45;;;29.17;;
33170;SDS011;19535;50.672;4.206;2023-02-15T06:51:12;30.55;;;27.38;;
33170;SDS011;19535;50.672;4.206;2023-02-15T06:53:39;28.10;;;25.27;;
33170;SDS011;19535;50.672;4.206;2023-02-15T06:58:37;25.52;;;22.95;;
33170;SDS011;19535;50.672;4.206;2023-02-15T07:01:07;23.33;;;20.95;;
33170;SDS011;19535;50.672;4.206;2023-02-15T07:03:35;56.55;;;50.28;;
33170;SDS011;19535;50.672;4.206;2023-02-15T07:06:03;117.20;;;104.30;;
33170;SDS011;19535;50.672;4.206;2023-02-15T07:08:34;90.28;;;80.38;;
33170;SDS011;19535;50.672;4.206;2023-02-15T07:11:01;88.82;;;79.28;;
33170;SDS011;19535;50.672;4.206;2023-02-15T07:13:47;133.60;;;119.43;;
33170;SDS011;19535;50.672;4.206;2023-02-15T07:16:14;136.73;;;122.53;;
33170;SDS011;19535;50.672;4.206;2023-02-15T07:18:41;118.75;;;106.15;;
33170;SDS011;19535;50.672;4.206;2023-02-15T07:21:07;106.95;;;95.57;;
33170;SDS011;19535;50.672;4.206;2023-02-15T07:23:35;100.00;;;88.80;;
33170;SDS011;19535;50.672;4.206;2023-02-15T07:26:02;88.70;;;79.07;;
33170;SDS011;19535;50.672;4.206;2023-02-15T07:28:30;83.03;;;74.32;;
33170;SDS011;19535;50.672;4.206;2023-02-15T07:30:58;78.07;;;69.15;;
33170;SDS011;19535;50.672;4.206;2023-02-15T07:33:27;76.47;;;67.50;;
33170;SDS011;19535;50.672;4.206;2023-02-15T07:35:56;65.80;;;58.97;;
33170;SDS011;19535;50.672;4.206;2023-02-15T07:38:25;62.45;;;55.83;;
33170;SDS011;19535;50.672;4.206;2023-02-15T07:40:57;59.20;;;53.08;;
33170;SDS011;19535;50.672;4.206;2023-02-15T07:43:25;57.03;;;51.03;;
33170;SDS011;19535;50.672;4.206;2023-02-15T07:45:53;54.42;;;48.97;;
33170;SDS011;19535;50.672;4.206;2023-02-15T07:48:20;53.38;;;47.65;;
33170;SDS011;19535;50.672;4.206;2023-02-15T07:50:50;49.58;;;44.47;;
33170;SDS011;19535;50.672;4.206;2023-02-15T07:53:16;45.67;;;41.05;;
33170;SDS011;19535;50.672;4.206;2023-02-15T07:55:43;46.92;;;42.13;;
33170;SDS011;19535;50.672;4.206;2023-02-15T07:58:10;45.83;;;41.10;;
33170;SDS011;19535;50.672;4.206;2023-02-15T08:00:37;43.13;;;38.65;;
33170;SDS011;19535;50.672;4.206;2023-02-15T08:03:25;42.88;;;38.63;;
33170;SDS011;19535;50.672;4.206;2023-02-15T08:05:56;38.67;;;34.70;;
33170;SDS011;19535;50.672;4.206;2023-02-15T08:11:03;38.58;;;34.63;;
33170;SDS011;19535;50.672;4.206;2023-02-15T08:19:13;35.08;;;31.67;;
33170;SDS011;19535;50.672;4.206;2023-02-15T08:21:42;34.40;;;30.90;;
33170;SDS011;19535;50.672;4.206;2023-02-15T08:24:12;33.72;;;30.50;;
33170;SDS011;19535;50.672;4.206;2023-02-15T08:26:40;32.80;;;29.58;;
33170;SDS011;19535;50.672;4.206;2023-02-15T08:29:08;33.47;;;30.35;;
33170;SDS011;19535;50.672;4.206;2023-02-15T08:31:35;31.25;;;28.38;;
33170;SDS011;19535;50.672;4.206;2023-02-15T08:34:04;29.90;;;27.15;;
33170;SDS011;19535;50.672;4.206;2023-02-15T08:36:31;31.75;;;28.83;;
33170;SDS011;19535;50.672;4.206;2023-02-15T08:38:58;29.63;;;27.02;;
33170;SDS011;19535;50.672;4.206;2023-02-15T08:41:27;29.20;;;26.60;;
33170;SDS011;19535;50.672;4.206;2023-02-15T08:43:57;28.48;;;25.88;;
33170;SDS011;19535;50.672;4.206;2023-02-15T08:46:26;28.65;;;26.05;;
33170;SDS011;19535;50.672;4.206;2023-02-15T08:48:58;27.10;;;24.65;;
33170;SDS011;19535;50.672;4.206;2023-02-15T08:51:25;28.45;;;25.75;;
33170;SDS011;19535;50.672;4.206;2023-02-15T08:53:57;27.23;;;24.55;;
33170;SDS011;19535;50.672;4.206;2023-02-15T08:56:27;26.30;;;23.95;;
33170;SDS011;19535;50.672;4.206;2023-02-15T08:58:55;25.58;;;23.25;;
33170;SDS011;19535;50.672;4.206;2023-02-15T09:01:26;25.15;;;22.88;;
33170;SDS011;19535;50.672;4.206;2023-02-15T09:03:56;25.52;;;23.25;;
33170;SDS011;19535;50.672;4.206;2023-02-15T09:06:24;25.15;;;22.75;;
33170;SDS011;19535;50.672;4.206;2023-02-15T09:08:51;24.67;;;22.63;;
33170;SDS011;19535;50.672;4.206;2023-02-15T09:11:20;25.00;;;22.60;;
33170;SDS011;19535;50.672;4.206;2023-02-15T09:13:51;24.02;;;21.85;;
33170;SDS011;19535;50.672;4.206;2023-02-15T09:16:26;24.48;;;22.38;;
33170;SDS011;19535;50.672;4.206;2023-02-15T09:18:55;24.27;;;22.10;;
33170;SDS011;19535;50.672;4.206;2023-02-15T09:21:24;21.85;;;19.98;;
33170;SDS011;19535;50.672;4.206;2023-02-15T09:23:55;22.42;;;20.33;;
33170;SDS011;19535;50.672;4.206;2023-02-15T09:26:24;22.77;;;20.70;;
33170;SDS011;19535;50.672;4.206;2023-02-15T09:28:51;21.38;;;19.48;;
33170;SDS011;19535;50.672;4.206;2023-02-15T09:31:24;21.67;;;19.73;;
33170;SDS011;19535;50.672;4.206;2023-02-15T09:33:53;21.85;;;19.95;;
33170;SDS011;19535;50.672;4.206;2023-02-15T09:38:55;20.60;;;18.83;;
33170;SDS011;19535;50.672;4.206;2023-02-15T09:53:05;20.38;;;18.60;;
33170;SDS011;19535;50.672;4.206;2023-02-15T10:03:50;19.67;;;17.67;;
33170;SDS011;19535;50.672;4.206;2023-02-15T10:06:40;17.80;;;16.25;;
33170;SDS011;19535;50.672;4.206;2023-02-15T10:14:56;17.17;;;15.68;;
33170;SDS011;19535;50.672;4.206;2023-02-15T10:20:49;18.08;;;16.58;;
33170;SDS011;19535;50.672;4.206;2023-02-15T10:28:58;17.13;;;15.70;;
33170;SDS011;19535;50.672;4.206;2023-02-15T10:34:24;16.90;;;15.50;;
33170;SDS011;19535;50.672;4.206;2023-02-15T10:39:41;16.58;;;15.13;;
33170;SDS011;19535;50.672;4.206;2023-02-15T10:45:03;15.95;;;14.45;;
33170;SDS011;19535;50.672;4.206;2023-02-15T10:50:47;15.77;;;14.48;;
33170;SDS011;19535;50.672;4.206;2023-02-15T10:53:24;16.45;;;15.00;;
33170;SDS011;19535;50.672;4.206;2023-02-15T11:01:37;15.70;;;14.30;;
33170;SDS011;19535;50.672;4.206;2023-02-15T11:06:49;15.25;;;13.95;;
33170;SDS011;19535;50.672;4.206;2023-02-15T11:09:22;14.65;;;13.27;;
33170;SDS011;19535;50.672;4.206;2023-02-15T11:11:52;14.48;;;13.18;;
33170;SDS011;19535;50.672;4.206;2023-02-15T11:14:23;13.95;;;12.82;;
33170;SDS011;19535;50.672;4.206;2023-02-15T11:17:02;14.40;;;13.20;;
33170;SDS011;19535;50.672;4.206;2023-02-15T11:19:33;14.88;;;13.68;;
33170;SDS011;19535;50.672;4.206;2023-02-15T11:22:02;15.13;;;13.88;;
33170;SDS011;19535;50.672;4.206;2023-02-15T11:24:32;14.23;;;13.02;;
33170;SDS011;19535;50.672;4.206;2023-02-15T11:32:28;13.70;;;12.50;;
33170;SDS011;19535;50.672;4.206;2023-02-15T11:37:48;13.75;;;12.45;;
33170;SDS011;19535;50.672;4.206;2023-02-15T11:40:23;14.25;;;12.95;;
33170;SDS011;19535;50.672;4.206;2023-02-15T11:43:02;14.07;;;12.88;;
33170;SDS011;19535;50.672;4.206;2023-02-15T11:45:33;13.70;;;12.55;;
33170;SDS011;19535;50.672;4.206;2023-02-15T11:48:00;13.20;;;12.10;;
33170;SDS011;19535;50.672;4.206;2023-02-15T11:50:34;13.82;;;12.63;;
33170;SDS011;19535;50.672;4.206;2023-02-15T11:53:02;13.38;;;12.20;;
33170;SDS011;19535;50.672;4.206;2023-02-15T11:55:45;13.40;;;12.30;;
33170;SDS011;19535;50.672;4.206;2023-02-15T12:00:43;12.63;;;11.43;;
33170;SDS011;19535;50.672;4.206;2023-02-15T12:05:49;13.77;;;12.43;;
33170;SDS011;19535;50.672;4.206;2023-02-15T12:08:20;12.98;;;11.88;;
33170;SDS011;19535;50.672;4.206;2023-02-15T12:13:27;12.68;;;11.48;;
33170;SDS011;19535;50.672;4.206;2023-02-15T12:15:55;12.18;;;11.10;;
33170;SDS011;19535;50.672;4.206;2023-02-15T12:18:42;13.15;;;12.05;;
33170;SDS011;19535;50.672;4.206;2023-02-15T12:21:14;12.27;;;11.27;;
33170;SDS011;19535;50.672;4.206;2023-02-15T12:23:57;12.27;;;11.18;;
33170;SDS011;19535;50.672;4.206;2023-02-15T12:26:30;13.15;;;12.05;;
33170;SDS011;19535;50.672;4.206;2023-02-15T12:29:01;12.23;;;11.13;;
33170;SDS011;19535;50.672;4.206;2023-02-15T12:31:36;11.88;;;10.88;;
33170;SDS011;19535;50.672;4.206;2023-02-15T12:34:10;11.88;;;10.90;;
33170;SDS011;19535;50.672;4.206;2023-02-15T12:37:02;12.43;;;11.23;;
33170;SDS011;19535;50.672;4.206;2023-02-15T12:39:50;12.02;;;11.02;;
33170;SDS011;19535;50.672;4.206;2023-02-15T12:42:28;12.05;;;11.02;;
33170;SDS011;19535;50.672;4.206;2023-02-15T12:48:12;11.85;;;10.85;;
33170;SDS011;19535;50.672;4.206;2023-02-15T12:50:47;10.95;;;10.05;;
33170;SDS011;19535;50.672;4.206;2023-02-15T12:53:30;12.15;;;11.15;;
33170;SDS011;19535;50.672;4.206;2023-02-15T12:56:02;11.35;;;10.45;;
33170;SDS011;19535;50.672;4.206;2023-02-15T12:58:40;11.23;;;10.32;;
33170;SDS011;19535;50.672;4.206;2023-02-15T13:06:30;10.77;;;9.80;;
33170;SDS011;19535;50.672;4.206;2023-02-15T13:11:45;10.82;;;9.93;;
33170;SDS011;19535;50.672;4.206;2023-02-15T13:14:28;10.75;;;9.93;;
33170;SDS011;19535;50.672;4.206;2023-02-15T13:16:58;10.57;;;9.68;;
33170;SDS011;19535;50.672;4.206;2023-02-15T13:22:11;9.90;;;9.10;;
33170;SDS011;19535;50.672;4.206;2023-02-15T13:24:48;10.48;;;9.57;;
33170;SDS011;19535;50.672;4.206;2023-02-15T13:27:18;9.90;;;9.10;;
33170;SDS011;19535;50.672;4.206;2023-02-15T13:29:48;9.80;;;8.93;;
33170;SDS011;19535;50.672;4.206;2023-02-15T13:32:39;10.20;;;9.40;;
33170;SDS011;19535;50.672;4.206;2023-02-15T13:35:10;10.13;;;9.32;;
33170;SDS011;19535;50.672;4.206;2023-02-15T13:40:51;8.52;;;7.93;;
33170;SDS011;19535;50.672;4.206;2023-02-15T13:55:00;9.38;;;8.68;;
33170;SDS011;19535;50.672;4.206;2023-02-15T14:09:11;9.00;;;8.30;;
33170;SDS011;19535;50.672;4.206;2023-02-15T14:12:35;9.30;;;8.55;;
33170;SDS011;19535;50.672;4.206;2023-02-15T14:14:52;9.00;;;8.30;;
33170;SDS011;19535;50.672;4.206;2023-02-15T14:26:20;8.73;;;8.02;;
33170;SDS011;19535;50.672;4.206;2023-02-15T14:29:03;9.05;;;8.35;;
33170;SDS011;19535;50.672;4.206;2023-02-15T14:31:45;9.45;;;8.70;;
33170;SDS011;19535;50.672;4.206;2023-02-15T14:34:23;9.10;;;8.35;;
33170;SDS011;19535;50.672;4.206;2023-02-15T14:36:54;8.85;;;8.05;;
33170;SDS011;19535;50.672;4.206;2023-02-15T14:39:33;9.18;;;8.48;;
33170;SDS011;19535;50.672;4.206;2023-02-15T14:42:25;8.45;;;7.75;;
33170;SDS011;19535;50.672;4.206;2023-02-15T14:45:21;8.75;;;8.05;;
33170;SDS011;19535;50.672;4.206;2023-02-15T14:48:19;9.35;;;8.55;;
33170;SDS011;19535;50.672;4.206;2023-02-15T14:50:50;9.15;;;8.45;;
33170;SDS011;19535;50.672;4.206;2023-02-15T14:58:36;9.02;;;8.13;;
33170;SDS011;19535;50.672;4.206;2023-02-15T15:01:03;8.45;;;7.75;;
33170;SDS011;19535;50.672;4.206;2023-02-15T15:03:32;8.88;;;8.18;;
33170;SDS011;19535;50.672;4.206;2023-02-15T15:05:59;9.35;;;8.55;;
33170;SDS011;19535;50.672;4.206;2023-02-15T15:08:36;8.70;;;8.00;;
33170;SDS011;19535;50.672;4.206;2023-02-15T15:14:09;9.45;;;8.65;;
33170;SDS011;19535;50.672;4.206;2023-02-15T15:16:57;8.73;;;8.02;;
33170;SDS011;19535;50.672;4.206;2023-02-15T15:22:21;8.83;;;8.23;;
33170;SDS011;19535;50.672;4.206;2023-02-15T15:24:51;8.68;;;7.97;;
33170;SDS011;19535;50.672;4.206;2023-02-15T15:27:38;8.90;;;8.20;;
33170;SDS011;19535;50.672;4.206;2023-02-15T15:41:39;8.68;;;8.05;;
33170;SDS011;19535;50.672;4.206;2023-02-15T15:46:38;9.05;;;8.27;;
33170;SDS011;19535;50.672;4.206;2023-02-15T15:49:23;8.98;;;8.27;;
33170;SDS011;19535;50.672;4.206;2023-02-15T15:51:53;8.95;;;8.25;;
33170;SDS011;19535;50.672;4.206;2023-02-15T15:54:21;9.63;;;8.82;;
33170;SDS011;19535;50.672;4.206;2023-02-15T15:56:51;9.18;;;8.48;;
33170;SDS011;19535;50.672;4.206;2023-02-15T15:59:27;9.38;;;8.52;;
33170;SDS011;19535;50.672;4.206;2023-02-15T16:01:56;8.85;;;8.15;;
33170;SDS011;19535;50.672;4.206;2023-02-15T16:04:32;8.20;;;7.60;;
33170;SDS011;19535;50.672;4.206;2023-02-15T16:09:39;9.23;;;8.43;;
33170;SDS011;19535;50.672;4.206;2023-02-15T16:12:13;9.25;;;8.45;;
33170;SDS011;19535;50.672;4.206;2023-02-15T16:14:41;9.02;;;8.32;;
33170;SDS011;19535;50.672;4.206;2023-02-15T16:17:14;8.68;;;7.97;;
33170;SDS011;19535;50.672;4.206;2023-02-15T16:19:45;9.13;;;8.43;;
33170;SDS011;19535;50.672;4.206;2023-02-15T16:22:16;8.75;;;8.05;;
33170;SDS011;19535;50.672;4.206;2023-02-15T16:27:42;9.48;;;8.57;;
33170;SDS011;19535;50.672;4.206;2023-02-15T16:30:16;9.27;;;8.48;;
33170;SDS011;19535;50.672;4.206;2023-02-15T16:32:48;9.38;;;8.60;;
33170;SDS011;19535;50.672;4.206;2023-02-15T16:35:19;10.52;;;8.82;;
33170;SDS011;19535;50.672;4.206;2023-02-15T16:37:47;9.50;;;8.70;;
33170;SDS011;19535;50.672;4.206;2023-02-15T16:42:50;9.55;;;8.73;;
33170;SDS011;19535;50.672;4.206;2023-02-15T16:45:19;9.10;;;8.40;;
33170;SDS011;19535;50.672;4.206;2023-02-15T16:47:48;9.20;;;8.32;;
33170;SDS011;19535;50.672;4.206;2023-02-15T16:50:17;9.05;;;8.25;;
33170;SDS011;19535;50.672;4.206;2023-02-15T16:53:01;8.68;;;7.93;;
33170;SDS011;19535;50.672;4.206;2023-02-15T16:55:30;8.95;;;8.15;;
33170;SDS011;19535;50.672;4.206;2023-02-15T16:58:11;9.43;;;8.60;;
33170;SDS011;19535;50.672;4.206;2023-02-15T17:00:40;8.57;;;7.80;;
33170;SDS011;19535;50.672;4.206;2023-02-15T17:05:42;9.20;;;8.40;;
33170;SDS011;19535;50.672;4.206;2023-02-15T17:10:46;16.40;;;15.00;;
33170;SDS011;19535;50.672;4.206;2023-02-15T17:13:30;27.38;;;24.85;;
33170;SDS011;19535;50.672;4.206;2023-02-15T17:19:02;30.85;;;27.85;;
33170;SDS011;19535;50.672;4.206;2023-02-15T17:21:25;30.63;;;27.92;;
33170;SDS011;19535;50.672;4.206;2023-02-15T17:23:57;30.08;;;27.23;;
33170;SDS011;19535;50.672;4.206;2023-02-15T17:26:31;28.08;;;25.48;;
33170;SDS011;19535;50.672;4.206;2023-02-15T17:29:18;25.98;;;23.63;;
33170;SDS011;19535;50.672;4.206;2023-02-15T17:31:59;22.05;;;20.00;;
33170;SDS011;19535;50.672;4.206;2023-02-15T17:42:48;18.80;;;16.92;;
33170;SDS011;19535;50.672;4.206;2023-02-15T17:45:15;17.75;;;16.15;;
33170;SDS011;19535;50.672;4.206;2023-02-15T17:47:42;16.48;;;15.18;;
33170;SDS011;19535;50.672;4.206;2023-02-15T17:50:32;33.80;;;30.77;;
33170;SDS011;19535;50.672;4.206;2023-02-15T17:52:58;38.65;;;35.15;;
33170;SDS011;19535;50.672;4.206;2023-02-15T17:55:27;34.67;;;31.50;;
33170;SDS011;19535;50.672;4.206;2023-02-15T17:58:08;32.20;;;29.15;;
33170;SDS011;19535;50.672;4.206;2023-02-15T18:00:45;30.42;;;27.73;;
33170;SDS011;19535;50.672;4.206;2023-02-15T18:06:29;27.55;;;25.20;;
33170;SDS011;19535;50.672;4.206;2023-02-15T18:09:18;27.80;;;25.33;;
33170;SDS011;19535;50.672;4.206;2023-02-15T18:12:26;27.13;;;24.73;;
33170;SDS011;19535;50.672;4.206;2023-02-15T18:14:59;26.02;;;23.50;;
33170;SDS011;19535;50.672;4.206;2023-02-15T18:17:33;25.95;;;23.38;;
33170;SDS011;19535;50.672;4.206;2023-02-15T18:20:17;25.40;;;22.95;;
33170;SDS011;19535;50.672;4.206;2023-02-15T18:22:45;24.15;;;21.75;;
33170;SDS011;19535;50.672;4.206;2023-02-15T18:25:12;23.80;;;21.70;;
33170;SDS011;19535;50.672;4.206;2023-02-15T18:27:40;23.15;;;21.15;;
33170;SDS011;19535;50.672;4.206;2023-02-15T18:30:11;22.33;;;20.33;;
33170;SDS011;19535;50.672;4.206;2023-02-15T18:32:40;22.85;;;20.80;;
33170;SDS011;19535;50.672;4.206;2023-02-15T18:35:08;21.08;;;19.17;;
33170;SDS011;19535;50.672;4.206;2023-02-15T18:37:46;21.05;;;19.15;;
33170;SDS011;19535;50.672;4.206;2023-02-15T18:40:14;19.30;;;17.40;;